Time;durP1;ratioP1;P1;durP2;ratioP2;P2;SDS_P1;SDS_P2;PMS_P1;PMS_P2;Temp;Humidity;BMP_temperature;BMP_pressure;BME280_temperature;BME280_humidity;BME280_pressure;Samples;Min_cycle;Max_cycle;Signal;HPM_P1;HPM_P2
2022/05/20 00:01:35;;;;;;;4.70;3.10;;;22.30;56.50;;;;;;5092161;28;20206;-70
2022/05/20 00:04:01;;;;;;;4.05;3.65;;;22.30;56.60;;;;;;5091600;28;20166;-69
2022/05/20 00:06:26;;;;;;;3.00;2.70;;;22.30;56.60;;;;;;5092324;28;20182;-69
2022/05/20 00:08:53;;;;;;;4.43;2.72;;;22.30;56.50;;;;;;5091340;28;20699;-70
2022/05/20 00:11:18;;;;;;;3.28;2.42;;;22.30;56.60;;;;;;5092535;28;20178;-70
2022/05/20 00:13:45;;;;;;;4.63;2.20;;;22.30;56.60;;;;;;5091918;28;20621;-71
2022/05/20 00:16:10;;;;;;;3.80;2.80;;;22.30;56.60;;;;;;5091684;28;20281;-71
2022/05/20 00:18:36;;;;;;;3.40;2.75;;;22.30;56.50;;;;;;5091924;28;20303;-71
2022/05/20 00:21:01;;;;;;;3.28;2.60;;;22.20;56.50;;;;;;5092349;28;20213;-72
2022/05/20 00:23:27;;;;;;;3.78;2.47;;;22.20;56.40;;;;;;5091503;28;20170;-72
2022/05/20 00:25:53;;;;;;;4.50;3.13;;;22.20;56.50;;;;;;5091880;28;20644;-71
2022/05/20 00:28:23;;;;;;;4.53;2.80;;;22.20;56.40;;;;;;5092428;28;20173;-70
2022/05/20 00:30:53;;;;;;;3.55;2.80;;;22.20;56.30;;;;;;5091246;28;20623;-69
2022/05/20 00:33:19;;;;;;;4.45;2.47;;;22.20;56.30;;;;;;5092201;28;20181;-70
2022/05/20 00:35:45;;;;;;;4.28;2.75;;;22.20;56.40;;;;;;5092047;28;20173;-69
2022/05/20 00:38:11;;;;;;;4.15;3.10;;;22.20;56.30;;;;;;5091651;28;20502;-69
2022/05/20 00:40:37;;;;;;;3.55;2.90;;;22.20;56.30;;;;;;5090515;28;20173;-69
2022/05/20 00:43:08;;;;;;;3.13;2.35;;;22.20;56.20;;;;;;5091992;28;20543;-71
2022/05/20 00:45:34;;;;;;;2.80;2.25;;;22.10;56.20;;;;;;5091278;28;20569;-71
2022/05/20 00:47:59;;;;;;;3.10;2.53;;;22.10;56.20;;;;;;5092278;28;20177;-71
2022/05/20 00:50:25;;;;;;;3.17;2.45;;;22.10;56.10;;;;;;5092092;28;20173;-70
2022/05/20 00:52:51;;;;;;;3.20;2.63;;;22.10;56.20;;;;;;5089655;28;20230;-70
2022/05/20 00:55:18;;;;;;;3.50;2.85;;;22.10;56.10;;;;;;5090946;28;20174;-71
2022/05/20 00:57:49;;;;;;;3.78;2.70;;;22.10;56.10;;;;;;5090391;28;20582;-71
2022/05/20 01:00:17;;;;;;;3.22;2.15;;;22.10;56.00;;;;;;5093606;28;20538;-70
2022/05/20 01:02:43;;;;;;;5.07;2.53;;;22.10;56.10;;;;;;5094325;28;20210;-70
2022/05/20 01:05:29;;;;;;;4.07;2.70;;;22.10;56.00;;;;;;5093765;28;20193;-70
2022/05/20 01:07:54;;;;;;;3.50;2.30;;;22.00;55.90;;;;;;5094402;28;20721;-70
2022/05/20 01:10:20;;;;;;;2.42;2.22;;;22.10;55.90;;;;;;5094404;28;20652;-71
2022/05/20 01:12:46;;;;;;;3.45;2.20;;;22.10;55.80;;;;;;5094535;28;20336;-71
2022/05/20 01:15:11;;;;;;;4.40;2.83;;;22.00;55.70;;;;;;5094372;28;20268;-72
2022/05/20 01:17:37;;;;;;;3.83;2.40;;;22.00;55.80;;;;;;5095586;28;20173;-72
2022/05/20 01:20:03;;;;;;;3.53;2.47;;;22.00;55.80;;;;;;5094757;28;20178;-72
2022/05/20 01:22:54;;;;;;;3.80;2.55;;;22.00;55.70;;;;;;5094093;28;20310;-72
2022/05/20 01:25:20;;;;;;;2.95;2.42;;;22.00;55.70;;;;;;5095347;28;20218;-72
2022/05/20 01:27:46;;;;;;;2.30;2.10;;;22.00;55.60;;;;;;5094445;28;20174;-72
2022/05/20 01:30:13;;;;;;;3.53;2.42;;;22.00;55.70;;;;;;5095404;28;20181;-70
2022/05/20 01:32:39;;;;;;;2.50;2.30;;;21.90;55.50;;;;;;5094898;28;20640;-70
2022/05/20 01:35:05;;;;;;;3.15;2.40;;;22.00;55.60;;;;;;5094463;28;20183;-70
2022/05/20 01:37:31;;;;;;;2.47;2.28;;;21.90;55.50;;;;;;5093860;28;20186;-70
2022/05/20 01:40:00;;;;;;;2.95;2.35;;;21.90;55.50;;;;;;5094694;28;20196;-71
2022/05/20 01:42:32;;;;;;;2.75;2.00;;;21.90;55.50;;;;;;5094231;28;20540;-71
2022/05/20 01:45:04;;;;;;;2.25;2.10;;;21.90;55.50;;;;;;5093691;28;20256;-71
2022/05/20 01:47:33;;;;;;;2.35;2.15;;;21.90;55.40;;;;;;5093143;28;20947;-71
2022/05/20 01:50:27;;;;;;;2.90;2.20;;;21.90;55.40;;;;;;5093446;28;20252;-71
2022/05/20 01:52:58;;;;;;;3.50;2.40;;;21.90;55.30;;;;;;5090924;28;20584;-71
2022/05/20 01:55:32;;;;;;;3.55;2.25;;;21.80;55.30;;;;;;5094212;28;20281;-71
2022/05/20 01:58:07;;;;;;;3.35;2.22;;;21.90;55.30;;;;;;5094372;28;20645;-72
2022/05/20 02:00:35;;;;;;;2.63;2.28;;;21.80;55.20;;;;;;5093423;28;20173;-72
2022/05/20 02:03:21;;;;;;;2.15;1.80;;;21.90;55.20;;;;;;5092874;28;20189;-71
2022/05/20 02:06:06;;;;;;;2.03;1.90;;;21.80;55.10;;;;;;5093354;28;20182;-71
2022/05/20 02:08:40;;;;;;;3.25;2.45;;;21.80;55.10;;;;;;5092618;28;20226;-71
2022/05/20 02:11:26;;;;;;;2.28;2.08;;;21.80;55.10;;;;;;5092430;28;20177;-71
2022/05/20 02:14:04;;;;;;;2.25;2.05;;;21.80;55.00;;;;;;5093176;28;20185;-71
2022/05/20 02:16:31;;;;;;;2.22;2.05;;;21.80;55.00;;;;;;5092683;28;20194;-71
2022/05/20 02:19:09;;;;;;;2.75;2.35;;;21.80;54.90;;;;;;5092985;28;20184;-72
2022/05/20 02:21:37;;;;;;;2.53;2.33;;;21.70;54.90;;;;;;5092627;28;20564;-72
2022/05/20 02:24:05;;;;;;;2.63;2.03;;;21.70;54.80;;;;;;5092523;28;20174;-72
2022/05/20 02:26:32;;;;;;;4.03;2.22;;;21.80;54.90;;;;;;5093138;28;20214;-70
2022/05/20 02:29:03;;;;;;;2.53;2.33;;;21.70;54.80;;;;;;5092923;28;20523;-70
2022/05/20 02:31:34;;;;;;;2.47;2.20;;;21.70;55.40;;;;;;5092390;28;20178;-70
2022/05/20 02:33:59;;;;;;;5.57;2.08;;;21.70;54.80;;;;;;5094029;28;20185;-69
2022/05/20 02:36:28;;;;;;;2.22;1.98;;;21.70;54.70;;;;;;5094026;28;20177;-69
2022/05/20 02:38:53;;;;;;;2.47;2.00;;;21.70;54.70;;;;;;5092619;28;20174;-70
2022/05/20 02:41:19;;;;;;;2.10;1.70;;;21.60;54.60;;;;;;5094046;28;20692;-71
2022/05/20 02:43:44;;;;;;;2.35;1.65;;;21.70;54.60;;;;;;5092954;28;20186;-71
2022/05/20 02:46:10;;;;;;;3.28;1.60;;;21.70;54.60;;;;;;5093879;28;20531;-70
2022/05/20 02:48:36;;;;;;;2.40;1.50;;;21.60;54.50;;;;;;5092292;28;20616;-70
2022/05/20 02:51:02;;;;;;;2.30;2.10;;;21.60;54.50;;;;;;5092902;28;20680;-70
2022/05/20 02:53:27;;;;;;;2.55;1.85;;;21.60;54.40;;;;;;5093683;28;20264;-70
2022/05/20 02:55:53;;;;;;;1.67;1.58;;;21.60;54.30;;;;;;5093444;28;20177;-71
2022/05/20 03:04:09;;;;;;;2.22;2.03;;;21.60;54.20;;;;;;5093552;28;20231;-70
2022/05/20 03:06:39;;;;;;;1.85;1.60;;;21.60;54.20;;;;;;5092529;28;20725;-70
2022/05/20 03:09:05;;;;;;;1.70;1.60;;;21.50;54.10;;;;;;5093249;28;20233;-70
2022/05/20 03:11:32;;;;;;;1.75;1.60;;;21.50;54.00;;;;;;5093232;28;20181;-70
2022/05/20 03:13:57;;;;;;;2.45;1.90;;;21.50;54.00;;;;;;5092626;28;20268;-72
2022/05/20 03:16:23;;;;;;;3.00;2.17;;;21.50;53.90;;;;;;5093499;28;20166;-71
2022/05/20 03:18:48;;;;;;;2.90;2.00;;;21.50;53.90;;;;;;5092534;28;20173;-72
2022/05/20 03:21:14;;;;;;;3.80;1.92;;;21.50;53.80;;;;;;5093373;28;20510;-71
2022/05/20 03:23:39;;;;;;;2.08;1.55;;;21.50;53.70;;;;;;5092795;28;20581;-71
2022/05/20 03:26:05;;;;;;;2.13;1.60;;;21.40;53.70;;;;;;5092382;28;20238;-70
2022/05/20 03:28:31;;;;;;;2.30;1.65;;;21.40;53.70;;;;;;5093354;28;20169;-71
2022/05/20 03:31:06;;;;;;;1.67;1.50;;;21.40;53.70;;;;;;5092827;28;20636;-70
2022/05/20 03:33:32;;;;;;;1.98;1.60;;;21.40;53.70;;;;;;5092287;28;20188;-69
2022/05/20 03:35:57;;;;;;;1.95;1.52;;;21.40;53.70;;;;;;5092472;28;20178;-69
2022/05/20 03:38:23;;;;;;;1.95;1.70;;;21.40;53.70;;;;;;5092683;28;20181;-69
2022/05/20 03:40:48;;;;;;;1.83;1.52;;;21.40;53.70;;;;;;5091608;28;20613;-70
2022/05/20 03:43:14;;;;;;;1.50;1.40;;;21.40;53.50;;;;;;5092930;28;20177;-71
2022/05/20 03:45:45;;;;;;;2.30;1.95;;;21.40;53.60;;;;;;5092645;28;20241;-71
2022/05/20 03:48:11;;;;;;;1.60;1.50;;;21.40;53.50;;;;;;5091993;28;20340;-70
2022/05/20 03:50:36;;;;;;;1.88;1.60;;;21.40;53.40;;;;;;5092462;28;20170;-70
2022/05/20 03:53:02;;;;;;;1.63;1.42;;;21.40;53.50;;;;;;5091435;28;20177;-70
2022/05/20 03:55:28;;;;;;;1.42;1.33;;;21.40;53.40;;;;;;5092115;28;20262;-70
2022/05/20 03:57:53;;;;;;;2.00;1.77;;;21.40;53.40;;;;;;5092571;28;20655;-71
2022/05/20 04:00:19;;;;;;;1.50;1.40;;;21.30;53.30;;;;;;5092719;28;20173;-71
2022/05/20 04:02:45;;;;;;;2.05;1.30;;;21.30;53.20;;;;;;5091434;28;20267;-71
2022/05/20 04:05:10;;;;;;;1.60;1.50;;;21.30;53.20;;;;;;5092570;28;20170;-70
2022/05/20 04:07:38;;;;;;;1.60;1.50;;;21.30;53.80;;;;;;5091868;28;20221;-70
2022/05/20 04:10:06;;;;;;;1.70;1.30;;;21.30;53.20;;;;;;5091952;28;20201;-70
2022/05/20 04:12:37;;;;;;;3.22;1.52;;;21.30;53.10;;;;;;5092742;28;20178;-71
2022/05/20 04:15:04;;;;;;;1.52;1.40;;;21.30;53.00;;;;;;5090627;28;20185;-71
2022/05/20 04:17:29;;;;;;;1.55;1.30;;;21.30;53.10;;;;;;5092520;28;20173;-71
2022/05/20 04:19:55;;;;;;;1.55;1.45;;;21.30;53.00;;;;;;5092037;28;20180;-71
2022/05/20 04:22:34;;;;;;;3.08;1.38;;;21.30;53.10;;;;;;5091433;28;20224;-71
2022/05/20 04:24:59;;;;;;;1.33;1.23;;;21.30;53.00;;;;;;5092061;28;20169;-71
2022/05/20 04:27:27;;;;;;;1.58;1.48;;;21.30;52.90;;;;;;5092405;28;20195;-71
2022/05/20 04:29:54;;;;;;;1.55;1.42;;;21.30;53.00;;;;;;5091335;28;20256;-69
2022/05/20 04:32:19;;;;;;;1.90;1.58;;;21.30;52.90;;;;;;5092018;28;20575;-69
2022/05/20 04:34:45;;;;;;;1.70;1.60;;;21.30;52.90;;;;;;5094834;28;20218;-68
2022/05/20 04:37:10;;;;;;;1.80;1.30;;;21.30;52.90;;;;;;5095870;28;20181;-69
2022/05/20 04:39:36;;;;;;;1.60;1.50;;;21.20;52.90;;;;;;5096191;28;20536;-70
2022/05/20 04:47:30;;;;;;;1.63;1.52;;;21.20;53.00;;;;;;5096145;28;20727;-69
2022/05/20 04:49:56;;;;;;;1.90;1.70;;;21.20;53.00;;;;;;5096059;28;20205;-69
2022/05/20 04:52:22;;;;;;;2.00;1.80;;;21.20;52.90;;;;;;5095631;28;20573;-69
2022/05/20 04:54:50;;;;;;;2.30;1.55;;;21.20;52.90;;;;;;5095921;28;20174;-70
2022/05/20 04:57:24;;;;;;;2.85;1.70;;;21.20;53.00;;;;;;5095292;28;20641;-70
2022/05/20 04:59:51;;;;;;;1.92;1.60;;;21.10;52.90;;;;;;5095635;28;20209;-71
2022/05/20 05:02:17;;;;;;;2.35;1.70;;;21.20;53.10;;;;;;5096153;28;20210;-69
2022/05/20 05:04:43;;;;;;;1.80;1.70;;;21.20;53.00;;;;;;5095158;28;20169;-69
2022/05/20 05:07:09;;;;;;;2.25;1.65;;;21.20;52.90;;;;;;5095760;28;20554;-70
2022/05/20 05:09:36;;;;;;;2.58;1.52;;;21.20;53.00;;;;;;5095751;28;20181;-69
2022/05/20 05:12:03;;;;;;;2.95;1.65;;;21.20;52.90;;;;;;5095122;28;20185;-70
2022/05/20 05:14:29;;;;;;;2.67;1.65;;;21.20;52.90;;;;;;5096261;28;20178;-70
2022/05/20 05:16:54;;;;;;;2.10;1.80;;;21.20;53.00;;;;;;5095592;28;20170;-70
2022/05/20 05:19:20;;;;;;;2.38;2.17;;;21.20;53.00;;;;;;5094948;28;20219;-71
2022/05/20 05:21:45;;;;;;;2.30;2.13;;;21.20;53.00;;;;;;5095087;28;20217;-70
2022/05/20 05:24:11;;;;;;;3.03;1.67;;;21.20;53.00;;;;;;5095536;28;20629;-71
2022/05/20 05:26:36;;;;;;;2.85;1.77;;;21.20;53.20;;;;;;5094194;28;20181;-69
2022/05/20 05:29:03;;;;;;;1.95;1.83;;;21.20;53.30;;;;;;5095350;28;20651;-69
2022/05/20 05:31:29;;;;;;;2.55;1.90;;;21.20;53.40;;;;;;5095403;28;20178;-69
2022/05/20 05:33:54;;;;;;;2.30;2.00;;;21.20;53.50;;;;;;5094205;28;20273;-68
2022/05/20 05:36:20;;;;;;;2.63;2.28;;;21.20;53.60;;;;;;5095248;28;20265;-69
2022/05/20 05:38:46;;;;;;;4.10;2.25;;;21.20;53.60;;;;;;5094937;28;20653;-69
2022/05/20 05:41:12;;;;;;;2.40;2.20;;;21.20;53.70;;;;;;5094082;28;20206;-70
2022/05/20 05:43:37;;;;;;;2.80;2.15;;;21.20;53.80;;;;;;5094741;28;20186;-70
2022/05/20 05:46:04;;;;;;;2.20;2.00;;;21.20;53.80;;;;;;5093447;28;20272;-70
2022/05/20 05:48:29;;;;;;;2.88;2.22;;;21.20;53.90;;;;;;5094319;28;20185;-69
2022/05/20 05:50:59;;;;;;;2.85;2.55;;;21.20;54.00;;;;;;5094807;28;20198;-70
2022/05/20 05:53:27;;;;;;;2.47;2.28;;;21.20;54.10;;;;;;5093982;28;20174;-70
2022/05/20 05:55:58;;;;;;;3.65;2.45;;;21.20;54.10;;;;;;5094395;28;20178;-71
2022/05/20 05:58:25;;;;;;;2.55;2.17;;;21.30;54.20;;;;;;5094878;28;20170;-71
2022/05/20 06:00:50;;;;;;;3.83;2.33;;;21.20;54.20;;;;;;5093588;28;20194;-70
2022/05/20 06:03:16;;;;;;;2.83;2.55;;;21.20;54.20;;;;;;5094643;28;20529;-69
2022/05/20 06:05:43;;;;;;;3.40;2.08;;;21.30;54.30;;;;;;5094191;28;20641;-69
2022/05/20 06:08:08;;;;;;;2.28;2.08;;;21.20;54.40;;;;;;5093492;28;20240;-69
2022/05/20 06:10:34;;;;;;;2.88;2.00;;;21.20;54.40;;;;;;5094335;28;20166;-69
2022/05/20 06:13:00;;;;;;;2.45;2.28;;;21.30;54.40;;;;;;5094457;28;20197;-71
2022/05/20 06:15:26;;;;;;;3.85;2.50;;;21.30;54.40;;;;;;5093890;28;20197;-71
2022/05/20 06:17:51;;;;;;;3.20;2.63;;;21.20;54.40;;;;;;5094211;28;20184;-72
2022/05/20 06:20:17;;;;;;;5.13;2.25;;;21.30;54.50;;;;;;5094267;28;20177;-71
2022/05/20 06:22:43;;;;;;;3.20;2.90;;;21.30;54.50;;;;;;5093298;28;20275;-71
2022/05/20 06:25:09;;;;;;;8.40;3.47;;;21.30;54.50;;;;;;5094168;28;20185;-71
2022/05/20 06:27:35;;;;;;;4.82;2.53;;;21.30;54.60;;;;;;5094165;28;20224;-71
2022/05/20 06:30:01;;;;;;;4.85;3.70;;;21.30;54.60;;;;;;5093578;28;20290;-70
2022/05/20 06:32:27;;;;;;;3.40;2.47;;;21.30;54.60;;;;;;5094287;28;20532;-70
2022/05/20 06:40:21;;;;;;;2.75;1.75;;;21.30;54.80;;;;;;5094099;28;20612;-70
2022/05/20 06:42:46;;;;;;;9.95;2.92;;;21.40;54.90;;;;;;5093172;28;20228;-72
2022/05/20 06:45:12;;;;;;;6.38;2.65;;;21.40;55.00;;;;;;5094007;28;20188;-72
2022/05/20 06:47:38;;;;;;;5.10;2.33;;;21.40;55.00;;;;;;5093662;28;20181;-68
2022/05/20 06:50:04;;;;;;;4.43;2.63;;;21.40;55.10;;;;;;5093118;28;20170;-71
2022/05/20 06:52:29;;;;;;;5.45;3.33;;;21.40;55.00;;;;;;5093693;28;20202;-71
2022/05/20 06:54:55;;;;;;;6.38;3.88;;;21.50;54.90;;;;;;5093412;28;20643;-71
2022/05/20 06:57:21;;;;;;;4.88;3.10;;;21.50;54.90;;;;;;5092739;28;20620;-70
2022/05/20 06:59:47;;;;;;;4.45;2.72;;;21.50;55.00;;;;;;5093478;28;20238;-73
2022/05/20 07:02:12;;;;;;;6.68;3.53;;;21.50;55.10;;;;;;5093529;28;20213;-73
2022/05/20 07:04:38;;;;;;;3.90;3.13;;;21.50;55.10;;;;;;5092374;28;20544;-73
2022/05/20 07:07:04;;;;;;;7.82;4.55;;;21.50;55.40;;;;;;5093523;28;20629;-71
2022/05/20 07:09:30;;;;;;;8.10;4.70;;;21.40;55.30;;;;;;5092521;28;20173;-72
2022/05/20 07:11:55;;;;;;;6.38;4.28;;;21.40;55.40;;;;;;5092407;28;20728;-71
2022/05/20 07:14:22;;;;;;;9.93;4.43;;;21.40;55.30;;;;;;5093517;28;20234;-71
2022/05/20 07:16:47;;;;;;;8.85;4.57;;;21.50;55.30;;;;;;5093018;28;20174;-71
2022/05/20 07:19:13;;;;;;;6.05;4.40;;;21.50;55.30;;;;;;5092454;28;20660;-71
2022/05/20 07:21:40;;;;;;;8.32;4.22;;;21.50;55.30;;;;;;5092720;28;20240;-71
2022/05/20 07:24:06;;;;;;;6.15;3.50;;;21.50;55.30;;;;;;5093168;28;20170;-71
2022/05/20 07:26:32;;;;;;;5.57;3.45;;;21.50;55.30;;;;;;5092274;28;20664;-72
2022/05/20 07:28:57;;;;;;;7.75;3.60;;;21.50;55.30;;;;;;5092821;28;20162;-72
2022/05/20 07:31:24;;;;;;;5.82;4.00;;;21.50;55.30;;;;;;5093010;28;20256;-73
2022/05/20 07:33:50;;;;;;;5.68;3.38;;;21.50;55.30;;;;;;5091847;28;20703;-73
2022/05/20 07:36:16;;;;;;;7.32;3.42;;;21.50;55.30;;;;;;5092841;28;20173;-73
2022/05/20 07:38:42;;;;;;;4.40;2.97;;;21.50;55.30;;;;;;5092734;28;20643;-73
2022/05/20 07:41:07;;;;;;;5.80;2.83;;;21.50;55.30;;;;;;5092251;28;20362;-73
2022/05/20 07:43:33;;;;;;;5.18;2.97;;;21.60;55.30;;;;;;5092717;28;20175;-73
2022/05/20 07:45:58;;;;;;;4.43;2.75;;;21.60;55.30;;;;;;5091711;28;20177;-72
2022/05/20 07:48:24;;;;;;;4.20;3.20;;;21.60;55.40;;;;;;5092913;28;20260;-72
2022/05/20 07:50:55;;;;;;;6.82;2.80;;;21.60;55.40;;;;;;5092332;28;20178;-71
2022/05/20 07:53:21;;;;;;;3.63;3.22;;;21.50;55.40;;;;;;5090984;28;20226;-72
2022/05/20 07:55:57;;;;;;;4.80;3.13;;;21.50;55.40;;;;;;5091258;28;20169;-72
2022/05/20 07:58:29;;;;;;;4.05;3.00;;;21.60;55.50;;;;;;5092886;28;20264;-73
2022/05/20 08:00:58;;;;;;;5.22;3.08;;;21.60;55.40;;;;;;5090036;28;20186;-74
2022/05/20 08:06:09;;;;;;;4.35;3.05;;;21.70;55.30;;;;;;5091444;28;20172;-73
2022/05/20 08:08:34;;;;;;;4.13;2.40;;;21.70;55.30;;;;;;5090579;28;20225;-73
2022/05/20 08:11:00;;;;;;;3.50;2.83;;;21.70;55.40;;;;;;5092502;28;20188;-72
2022/05/20 08:13:26;;;;;;;4.15;2.85;;;21.70;55.50;;;;;;5092312;28;20176;-72
2022/05/20 08:15:51;;;;;;;4.30;3.30;;;21.70;55.40;;;;;;5091475;28;20204;-71
2022/05/20 08:18:17;;;;;;;3.53;2.75;;;21.70;55.40;;;;;;5092278;28;20174;-71
2022/05/20 08:20:43;;;;;;;3.05;2.70;;;21.80;55.40;;;;;;5091947;28;20624;-71
2022/05/20 08:23:08;;;;;;;4.00;2.70;;;21.80;55.30;;;;;;5091498;28;20217;-71
2022/05/20 08:25:36;;;;;;;3.45;2.53;;;21.80;55.30;;;;;;5092216;28;20196;-72
2022/05/20 08:28:02;;;;;;;3.13;2.67;;;21.80;55.30;;;;;;5092184;28;20647;-72
2022/05/20 08:30:27;;;;;;;4.50;2.72;;;21.90;55.30;;;;;;5091804;28;20178;-73
2022/05/20 08:32:53;;;;;;;2.92;2.20;;;21.90;55.30;;;;;;5091772;28;20181;-73
2022/05/20 08:35:20;;;;;;;2.30;2.10;;;21.90;55.90;;;;;;5091530;28;20216;-73
2022/05/20 08:37:46;;;;;;;3.95;2.35;;;21.90;55.30;;;;;;5091919;28;20182;-73
2022/05/20 08:40:17;;;;;;;2.80;2.35;;;21.90;55.30;;;;;;5092167;28;20248;-73
2022/05/20 08:42:43;;;;;;;4.22;2.70;;;21.90;55.30;;;;;;5090978;28;20664;-73
2022/05/20 08:45:08;;;;;;;4.22;2.10;;;22.00;55.30;;;;;;5090983;28;20249;-72
2022/05/20 08:47:42;;;;;;;3.95;2.40;;;22.00;55.30;;;;;;5091052;28;20327;-71
2022/05/20 08:50:13;;;;;;;3.42;2.42;;;22.00;55.30;;;;;;5090159;28;20185;-71
2022/05/20 08:52:39;;;;;;;3.50;2.75;;;22.00;55.30;;;;;;5090642;28;20170;-72
2022/05/20 08:55:05;;;;;;;3.47;2.35;;;22.00;56.00;;;;;;5092004;28;20185;-72
2022/05/20 08:57:33;;;;;;;2.92;2.38;;;22.00;55.30;;;;;;5091208;28;20180;-73
2022/05/20 08:59:59;;;;;;;3.15;2.28;;;22.00;55.30;;;;;;5091887;28;20170;-72
2022/05/20 09:02:24;;;;;;;3.00;2.22;;;22.00;55.30;;;;;;5091984;28;20213;-73
2022/05/20 09:04:50;;;;;;;2.30;2.10;;;22.00;55.20;;;;;;5090866;28;20178;-73
2022/05/20 09:07:18;;;;;;;2.30;2.03;;;22.00;55.20;;;;;;5091747;28;20521;-73
2022/05/20 09:09:53;;;;;;;4.32;2.40;;;22.10;55.20;;;;;;5090319;28;20173;-71
2022/05/20 09:12:33;;;;;;;2.45;2.25;;;22.10;55.20;;;;;;5091348;28;20180;-70
2022/05/20 09:17:46;;;;;;;2.13;1.92;;;22.10;55.10;;;;;;5090851;28;20592;-70
2022/05/20 09:20:18;;;;;;;3.05;2.35;;;22.10;55.10;;;;;;5093512;28;20709;-70
2022/05/20 09:22:59;;;;;;;2.22;2.03;;;22.10;55.10;;;;;;5094319;28;20262;-71
2022/05/20 09:25:33;;;;;;;2.38;2.17;;;22.10;55.10;;;;;;5094748;28;20738;-71
2022/05/20 09:28:33;;;;;;;3.00;2.20;;;22.10;55.10;;;;;;5095188;28;20189;-71
2022/05/20 09:31:05;;;;;;;2.22;2.03;;;22.20;55.20;;;;;;5061830;28;20190;-73
2022/05/20 09:33:31;;;;;;;1.90;1.80;;;22.20;55.20;;;;;;5093477;28;20191;-73
2022/05/20 09:36:00;;;;;;;2.65;2.40;;;22.20;55.30;;;;;;5093790;28;20174;-73
2022/05/20 09:38:40;;;;;;;2.58;2.38;;;22.20;55.30;;;;;;5094936;28;20174;-73
2022/05/20 09:41:10;;;;;;;2.35;2.15;;;22.20;55.30;;;;;;5094931;28;20185;-73
2022/05/20 09:43:38;;;;;;;5.05;2.35;;;22.20;55.30;;;;;;5094690;28;20578;-73
2022/05/20 09:46:04;;;;;;;3.00;2.20;;;22.20;55.30;;;;;;5094505;28;20247;-73
2022/05/20 09:48:38;;;;;;;3.08;2.22;;;22.10;55.30;;;;;;5093600;28;20547;-73
2022/05/20 09:51:12;;;;;;;2.75;1.95;;;22.10;55.30;;;;;;5093710;28;20523;-72
2022/05/20 09:53:39;;;;;;;3.92;2.97;;;22.10;55.30;;;;;;5092443;28;20178;-72
2022/05/20 09:56:13;;;;;;;2.40;2.20;;;22.10;55.20;;;;;;5094869;28;20177;-72
2022/05/20 09:58:38;;;;;;;3.95;2.28;;;22.10;55.30;;;;;;5094732;28;20173;-73
2022/05/20 10:01:08;;;;;;;2.97;2.30;;;22.10;55.30;;;;;;5093813;28;20506;-73
2022/05/20 10:03:38;;;;;;;2.50;2.30;;;22.10;55.30;;;;;;5093543;28;20189;-72
2022/05/20 10:06:20;;;;;;;2.50;2.22;;;22.10;55.30;;;;;;5093550;28;20258;-74
2022/05/20 10:08:54;;;;;;;5.00;2.55;;;22.10;55.20;;;;;;5092360;28;20306;-74
2022/05/20 10:11:29;;;;;;;2.97;2.22;;;22.20;55.10;;;;;;5093476;28;20213;-72
2022/05/20 10:14:02;;;;;;;2.85;2.00;;;22.20;55.10;;;;;;5093309;28;20174;-72
2022/05/20 10:17:16;;;;;;;3.20;2.60;;;22.20;55.10;;;;;;5092957;28;20648;-72
2022/05/20 10:19:52;;;;;;;2.75;2.20;;;22.20;54.90;;;;;;5038901;28;20218;-70
2022/05/20 10:22:45;;;;;;;2.83;2.22;;;22.30;55.00;;;;;;5092183;28;20672;-72
2022/05/20 10:25:31;;;;;;;3.50;2.78;;;22.20;55.00;;;;;;5093480;28;20321;-73
2022/05/20 10:32:34;;;;;;;3.42;2.10;;;22.20;55.10;;;;;;5092142;28;20667;-73
2022/05/20 10:33:47;;;;;;;3.08;1.90;;;22.30;55.40;;;;;;5092681;28;20521;-73
2022/05/20 10:36:45;;;;;;;4.45;2.20;;;22.30;55.50;;;;;;5092127;28;20174;-73
2022/05/20 10:39:17;;;;;;;3.47;2.00;;;22.30;55.50;;;;;;5092774;28;20649;-73
2022/05/20 10:42:05;;;;;;;3.15;2.20;;;22.30;55.50;;;;;;5092255;28;20220;-73
2022/05/20 10:50:26;;;;;;;3.65;2.20;;;22.40;55.20;;;;;;5092954;28;20232;-74
2022/05/20 10:53:29;;;;;;;3.33;1.90;;;22.50;55.20;;;;;;5093476;28;20200;-74
2022/05/20 10:56:06;;;;;;;2.55;1.90;;;22.50;55.20;;;;;;5092544;28;20530;-74
2022/05/20 10:58:55;;;;;;;3.88;1.85;;;22.50;55.20;;;;;;5092468;28;20181;-74
2022/05/20 11:01:47;;;;;;;2.17;1.90;;;22.60;55.30;;;;;;5093274;28;20711;-73
2022/05/20 11:04:31;;;;;;;4.88;2.05;;;22.60;55.30;;;;;;5091498;28;20177;-73
2022/05/20 11:07:21;;;;;;;6.65;2.15;;;22.60;55.30;;;;;;5091970;28;20547;-73
2022/05/20 11:10:01;;;;;;;5.25;2.08;;;22.60;55.40;;;;;;5091861;28;20259;-73
2022/05/20 11:12:55;;;;;;;4.00;1.73;;;22.70;55.40;;;;;;5093235;28;20165;-74
2022/05/20 11:15:37;;;;;;;3.40;2.00;;;22.60;55.40;;;;;;5092665;28;20554;-73
2022/05/20 11:18:06;;;;;;;3.85;2.10;;;22.60;55.30;;;;;;5092658;28;20184;-73
2022/05/20 11:20:58;;;;;;;2.88;1.95;;;22.60;55.40;;;;;;5093304;28;20252;-70
2022/05/20 11:23:39;;;;;;;6.82;2.92;;;22.60;55.40;;;;;;5092166;28;20277;-71
2022/05/20 11:26:32;;;;;;;5.00;2.35;;;22.60;55.40;;;;;;5091281;28;20181;-72
2022/05/20 11:29:20;;;;;;;6.32;2.35;;;22.60;55.60;;;;;;5092741;28;20192;-73
2022/05/20 11:32:02;;;;;;;2.92;2.03;;;22.60;55.60;;;;;;5090642;28;20641;-72
2022/05/20 11:34:48;;;;;;;5.72;1.88;;;22.60;55.70;;;;;;5091952;28;20170;-73
2022/05/20 11:37:26;;;;;;;2.05;1.77;;;22.60;55.70;;;;;;5092914;28;20182;-72
2022/05/20 11:40:05;;;;;;;3.33;2.08;;;22.60;55.60;;;;;;5091734;28;20180;-72
2022/05/20 11:42:42;;;;;;;2.97;1.90;;;22.60;55.70;;;;;;5091442;28;20220;-69
2022/05/20 11:45:25;;;;;;;5.65;2.20;;;22.60;55.90;;;;;;5091741;28;20180;-71
2022/05/20 11:48:25;;;;;;;7.35;2.38;;;22.70;55.70;;;;;;5091401;28;20177;-70
2022/05/20 11:51:15;;;;;;;3.60;1.92;;;22.70;55.70;;;;;;5092616;28;20186;-70
2022/05/20 11:54:19;;;;;;;3.40;1.90;;;22.60;55.60;;;;;;5091627;28;20178;-72
2022/05/20 11:56:49;;;;;;;4.80;1.92;;;22.60;55.60;;;;;;5091475;28;20181;-72
2022/05/20 11:59:17;;;;;;;2.13;1.85;;;22.60;55.60;;;;;;5090699;28;20283;-73
2022/05/20 12:01:44;;;;;;;3.97;1.70;;;22.60;55.70;;;;;;5090898;28;20236;-73
2022/05/20 12:04:10;;;;;;;3.78;1.98;;;22.60;55.70;;;;;;5091285;28;20178;-73
2022/05/20 12:06:52;;;;;;;2.10;1.90;;;22.50;55.70;;;;;;5090211;28;20181;-72
2022/05/20 12:09:44;;;;;;;1.63;1.50;;;22.50;55.80;;;;;;5091059;28;20241;-72
2022/05/20 12:12:17;;;;;;;4.60;2.00;;;22.40;55.80;;;;;;5089671;28;20174;-70
2022/05/20 12:15:03;;;;;;;2.83;2.22;;;22.40;55.80;;;;;;5090694;28;20178;-69
2022/05/20 12:17:28;;;;;;;4.22;1.70;;;22.40;55.80;;;;;;5090918;28;20177;-69
2022/05/20 12:25:38;;;;;;;4.32;2.17;;;22.30;55.80;;;;;;5037736;28;20194;-70
2022/05/20 12:28:06;;;;;;;4.18;2.00;;;22.30;55.90;;;;;;5071477;28;20187;-70
2022/05/20 12:30:38;;;;;;;2.13;1.88;;;22.20;56.00;;;;;;5082231;28;20208;-70
2022/05/20 12:33:20;;;;;;;5.57;2.28;;;22.20;56.10;;;;;;5092259;28;20534;-71
2022/05/20 12:36:16;;;;;;;2.58;1.95;;;22.20;56.10;;;;;;5091147;28;20178;-71
2022/05/20 12:38:42;;;;;;;4.00;2.13;;;22.10;56.10;;;;;;5090896;28;20262;-71
2022/05/20 12:41:38;;;;;;;2.83;2.22;;;22.10;56.20;;;;;;5092201;28;20240;-70
2022/05/20 12:44:24;;;;;;;4.57;2.40;;;22.00;56.20;;;;;;5092388;28;20194;-71
2022/05/20 12:47:02;;;;;;;2.20;1.95;;;22.00;56.30;;;;;;5081123;28;20180;-71
2022/05/20 12:49:51;;;;;;;4.00;2.00;;;22.00;56.30;;;;;;5091680;28;20177;-70
2022/05/20 12:52:19;;;;;;;4.57;2.03;;;22.00;56.30;;;;;;5091435;28;20182;-71
2022/05/20 12:54:46;;;;;;;1.95;1.75;;;22.00;56.40;;;;;;5092622;28;20174;-70
2022/05/20 12:57:48;;;;;;;2.47;2.00;;;22.00;56.40;;;;;;5095422;28;20174;-70
2022/05/20 13:00:14;;;;;;;3.22;1.70;;;22.00;56.40;;;;;;5082275;28;20193;-72
2022/05/20 13:02:42;;;;;;;2.35;1.70;;;21.90;56.40;;;;;;5093571;28;20627;-71
2022/05/20 13:05:21;;;;;;;2.15;1.95;;;22.00;56.50;;;;;;5094825;28;20185;-71
2022/05/20 13:07:47;;;;;;;3.22;2.08;;;22.00;56.50;;;;;;5094304;28;20217;-71
2022/05/20 13:10:33;;;;;;;2.35;2.00;;;21.90;56.40;;;;;;5093627;28;20165;-69
2022/05/20 13:13:05;;;;;;;2.40;2.20;;;21.90;56.50;;;;;;5094322;28;20631;-69
2022/05/20 13:15:31;;;;;;;3.15;2.10;;;21.90;56.50;;;;;;5095613;28;20181;-69
2022/05/20 13:18:05;;;;;;;2.95;2.13;;;21.90;56.60;;;;;;5094825;28;20196;-69
2022/05/20 13:20:31;;;;;;;3.10;2.15;;;21.90;56.60;;;;;;5095690;28;20203;-69
2022/05/20 13:23:01;;;;;;;3.42;2.00;;;21.90;56.60;;;;;;5073878;28;20214;-69
2022/05/20 13:25:26;;;;;;;4.35;2.03;;;21.90;56.60;;;;;;5074580;28;20174;-69
2022/05/20 13:27:52;;;;;;;3.80;1.83;;;21.90;56.60;;;;;;5074710;28;20689;-70
2022/05/20 13:30:30;;;;;;;3.35;2.20;;;21.90;56.60;;;;;;5074983;28;20179;-70
2022/05/20 13:33:06;;;;;;;2.28;1.85;;;22.00;56.50;;;;;;5074360;28;20315;-72
2022/05/20 13:35:39;;;;;;;4.05;2.20;;;22.00;56.40;;;;;;5075047;28;20188;-71
2022/05/20 13:38:05;;;;;;;3.45;1.73;;;22.00;56.40;;;;;;5074291;28;20178;-72
2022/05/20 13:40:42;;;;;;;2.47;2.28;;;22.10;56.40;;;;;;5073628;28;20682;-71
2022/05/20 13:43:10;;;;;;;2.20;1.73;;;22.10;56.40;;;;;;5075042;28;20306;-71